aviador You're here:

SOCA Decoded Metar

CAYENNE in FRENCH GUYANA
Report Time2018-02-22 08:00:00
UTC Time2018-02-22 08:25:29
Flight Rules vfr VFR
WindCalm
Visibility9999 m
Phenomena:Rain
Clouds:Few 004 Hf
Broken 030 Hf
Overcast 036 Hf
Expected CloudBase > 400 ft AGL from Temp-Dew spread
Ceiling3,000 ft
Temp23°C (ISA +8)
Dew Point22°C (94% RH)
QNH1012 hPa
Density Alt1,348 ft
Elevation30 ft
Report Wrong Elevation
Raw Report
SOCA 220800Z AUTO 00000KT 9999 FEW004 BKN030 OVC036 23/22 Q1012
TEMPO 2000 RA BKN008=

Extra information for SOCA:More info

Metar Taf Metar & Taf Last 4 Metars F.Rules Stats Wind Profile Meteogram Temp Stats Airport Information Weather charts Add Link Nearby VenuesMetar ALERT Operation Metar Decoded Social comments